x

Northern Hawaii One - 245nm Ne Of Honolulu Hi (51000) Wave Buoy

4:50am - Sat 28th Feb 2015 All times are HST. -10 hours from GMT.

  • Sig Wave height 6.6ft
  • Peak Period 9s
  • Average Period 6s
  • Wind
    7mph, 11mph gusts
  • Sea Temp 72°f
  • Air Temp 68°f
  • Sea Pressure 1016.1mb
  • Northern Hawaii One - 245nm Ne Of Honolulu Hi
  • Northern Hawaii One - 245nm Ne Of Honolulu Hi

More Historic Weather Station data

Upgrade to MSW Pro to gain access to the past 30 days of data for over 8000 Wavebouys and Weather Stations around the globe.

Join Pro

Comparision Forecast

View Surf forecast
   
Sat 02/28 4:50am 6.5ft 9s 6s 7 11 mph 1016.1mb 72f 68f
3:50am 7ft 9s 7s  -  4 mph 1015.8mb 72f 70f
2:50am 7ft 9s 7s  -  2 mph 1016.2mb 72f 71f
1:50am 7ft 9s 7s 2 7 mph 1016.3mb 72f 72f
12:50am 7.5ft 9s 7s 7 11 mph 1016.8mb 72f 72f
Fri 02/27 11:50pm 7.5ft 10s 7s 13 18 mph 1016.9mb 72f 72f
10:50pm 7.5ft 9s 7s 13 16 mph 1017.1mb 72f 72f
9:50pm 7ft 10s 7s 13 16 mph 1017.6mb 72f 73f
8:50pm 7ft 10s 7s 11 16 mph 1017.5mb 72f 72f
7:50pm 8ft 9s 7s 11 13 mph 1017.1mb 72f 73f
6:50pm 8ft 9s 7s 11 16 mph 1016.5mb 73f 72f
5:50pm 6.5ft 8s 6s 13 16 mph 1016.4mb 73f 73f
4:50pm 7ft 8s 7s 11 13 mph 1016.1mb 73f 73f
3:50pm 7ft 10s 7s 9 13 mph 1016mb 73f 73f
2:50pm 7.5ft 8s 7s 9 13 mph 1015.8mb 73f 73f
1:50pm 8ft 10s 7s 13 16 mph 1015.9mb 73f 73f
12:50pm 8ft 11s 7s 13 18 mph 1016.8mb 72f 73f
11:50am 8ft 10s 7s 11 16 mph 1017.9mb 72f 73f
10:50am 8ft 8s 7s 13 18 mph 1018.6mb 72f 73f
9:50am 8ft 10s 7s 13 18 mph 1018.7mb 72f 73f
8:50am 8ft 10s 7s 13 16 mph 1018.7mb 72f 73f
7:50am 8.5ft 10s 7s 13 18 mph 1018.2mb 71f 73f
6:50am 8ft 10s 7s 13 16 mph 1018mb 71f 72f
5:50am 8ft 9s 7s 13 16 mph 1017.7mb 71f 72f
4:50am 9ft 10s 7s 13 16 mph 1017.6mb 71f 72f
3:50am 8.5ft 9s 7s 11 16 mph 1017.8mb 71f 72f
2:50am 9ft 9s 7s 13 18 mph 1018.1mb 71f 72f
1:50am 8.5ft 9s 7s 9 13 mph 1018.5mb 72f 72f
12:50am 8.5ft 10s 7s 13 18 mph 1018.8mb 72f 72f
Thu 02/26 11:50pm 8.5ft 10s 7s 11 16 mph 1019.4mb 72f 72f
10:50pm 9ft 10s 7s 18 22 mph 1019.3mb 72f 72f
9:50pm  -   -   -  18 22 mph 1019.2mb 72f 72f
8:50pm  -   -   -  18 22 mph 1019mb 72f 72f
7:50pm  -   -   -  20 25 mph 1018.7mb 72f 71f
6:50pm 8.5ft 10s 6s 22 27 mph 1018.2mb 72f 71f
5:50pm 9.5ft 10s 7s 20 25 mph 1017.7mb 72f 71f
4:50pm  -   -   -  20 27 mph 1017.4mb 72f 72f
3:50pm 11ft 10s 7s 22 29 mph 1017.2mb 72f 72f
2:50pm 9.5ft 9s 7s 22 29 mph 1016.9mb 72f 72f
1:50pm  -   -   -  20 29 mph 1017.9mb 72f 71f
12:50pm  -   -   -  18 27 mph 1018.9mb 72f 72f
11:50am 10ft 10s 7s 16 22 mph 1019.8mb 72f 73f
10:50am 9.5ft 10s 7s 13 18 mph 1020.5mb 72f 72f
9:50am 9.5ft 11s 7s 13 16 mph 1020.8mb 72f 72f
8:50am 10.5ft 11s 8s 13 18 mph 1020.9mb 72f 72f
7:50am 9.5ft 11s 7s 13 18 mph 1020.5mb 72f 72f
6:50am 10ft 10s 7s 16 20 mph 1019.4mb 72f 72f
5:50am 11ft 11s 8s 16 20 mph 1018.9mb 72f 72f
4:50am 10ft 11s 7s 18 20 mph 1018.6mb 72f 72f
3:50am 11ft 10s 8s 18 25 mph 1018.6mb 72f 72f
2:50am 11ft 11s 7s 20 25 mph 1018.5mb 72f 71f
1:50am 10ft 11s 7s 20 25 mph 1019.1mb 72f 71f
12:50am 10ft 10s 7s 16 22 mph 1019.7mb 72f 72f
Wed 02/25 11:50pm 9ft 11s 7s 16 22 mph 1020.3mb 72f 72f
10:50pm  -   -   -  18 25 mph 1020.4mb 72f 72f
9:50pm  -   -   -  18 25 mph 1020.2mb 72f 71f
8:50pm  -   -   -  22
mph
- - 72f
7:50pm  -   -   -  18 27 mph 1019.6mb 72f 72f
6:50pm  -   -   -  16 25 mph 1019.2mb 73f 71f
5:50pm 11ft 9s 7s 18 25 mph 1019.1mb 73f 72f
4:50pm 11ft 10s 7s 20 27 mph 1018.6mb 73f 71f
3:50pm 10.5ft 10s 7s 18 25 mph 1018.6mb 72f 72f
2:50pm 11ft 9s 7s 22 27 mph 1018.7mb 72f 71f
1:50pm 10.5ft 9s 7s 18 25 mph 1019.2mb 72f 71f
12:50pm  -   -   -  20 27 mph 1019.9mb 72f 71f
11:50am 10ft 9s 7s 20 27 mph 1020.6mb 72f 71f
10:50am 10ft 9s 7s 18 27 mph 1021.2mb 72f 71f
9:50am 9.5ft 8s 7s 20 25 mph 1021.4mb 72f 71f
8:50am 9ft 9s 7s 20 27 mph 1021mb 71f 71f
7:50am 9ft 9s 7s 20 27 mph 1020.7mb 71f 71f
6:50am 10ft 9s 7s 20 27 mph 1020.2mb 71f 71f
5:50am 8.5ft 9s 7s 22 27 mph 1019.8mb 71f 71f
4:50am 9ft 8s 7s 18 25 mph 1019.7mb 71f 71f
3:50am  -   -   -  22 27 mph 1019.6mb 71f 71f
2:50am 9.5ft 8s 7s 13 22 mph 1020.6mb 71f 70f
1:50am  -   -   -  20 27 mph 1021.1mb 71f 70f
12:50am 9ft 8s 6s 20 27 mph 1021.3mb 72f 71f
Tue 02/24 11:50pm 8.5ft 8s 6s 18 27 mph 1021.8mb 72f 71f
10:50pm 8ft 8s 6s 16 25 mph 1021.9mb 72f 71f
9:50pm  -   -   -  20 27 mph 1022mb 72f 70f
8:50pm  -   -   -  20 27 mph 1021.7mb 72f 71f
7:50pm 6.5ft 7s 6s 22 27 mph 1021.5mb 72f 71f
6:50pm 6ft 7s 6s 20 27 mph 1021.2mb 72f 71f
5:50pm 6ft 6s 6s 20 27 mph 1020.4mb 72f 71f
4:50pm 6ft 7s 6s 16 22 mph 1020.1mb 72f 71f